sensor_id;sensor_type;location;lat;lon;timestamp;temperature;humidity
22235;DHT22;11286;45.596;5.284;2023-03-11T00:02:15;8.80;99.90
22235;DHT22;11286;45.596;5.284;2023-03-11T00:04:41;8.70;99.90
22235;DHT22;11286;45.596;5.284;2023-03-11T00:07:08;8.60;99.90
22235;DHT22;11286;45.596;5.284;2023-03-11T00:09:34;8.60;99.90
22235;DHT22;11286;45.596;5.284;2023-03-11T00:12:01;8.60;99.90
22235;DHT22;11286;45.596;5.284;2023-03-11T00:14:27;8.50;99.90
22235;DHT22;11286;45.596;5.284;2023-03-11T00:16:52;8.70;99.90
22235;DHT22;11286;45.596;5.284;2023-03-11T00:19:18;8.70;99.90
22235;DHT22;11286;45.596;5.284;2023-03-11T00:21:43;8.80;99.90
22235;DHT22;11286;45.596;5.284;2023-03-11T00:24:09;8.80;99.90
22235;DHT22;11286;45.596;5.284;2023-03-11T00:26:35;8.70;99.90
22235;DHT22;11286;45.596;5.284;2023-03-11T00:29:00;8.80;99.90
22235;DHT22;11286;45.596;5.284;2023-03-11T00:31:26;8.80;99.90
22235;DHT22;11286;45.596;5.284;2023-03-11T00:33:52;8.80;99.90
22235;DHT22;11286;45.596;5.284;2023-03-11T00:36:28;8.90;99.90
22235;DHT22;11286;45.596;5.284;2023-03-11T00:38:56;8.90;99.90
22235;DHT22;11286;45.596;5.284;2023-03-11T00:41:22;8.90;99.90
22235;DHT22;11286;45.596;5.284;2023-03-11T00:43:48;8.80;99.90
22235;DHT22;11286;45.596;5.284;2023-03-11T00:46:14;8.70;99.90
22235;DHT22;11286;45.596;5.284;2023-03-11T00:48:39;8.60;99.90
22235;DHT22;11286;45.596;5.284;2023-03-11T00:51:13;8.70;99.90
22235;DHT22;11286;45.596;5.284;2023-03-11T00:53:39;8.60;99.90
22235;DHT22;11286;45.596;5.284;2023-03-11T00:56:13;8.60;99.90
22235;DHT22;11286;45.596;5.284;2023-03-11T00:58:39;8.70;99.90
22235;DHT22;11286;45.596;5.284;2023-03-11T01:01:07;8.70;99.90
22235;DHT22;11286;45.596;5.284;2023-03-11T01:03:33;8.60;99.90
22235;DHT22;11286;45.596;5.284;2023-03-11T01:05:58;8.70;99.90
22235;DHT22;11286;45.596;5.284;2023-03-11T01:08:24;8.70;99.90
22235;DHT22;11286;45.596;5.284;2023-03-11T01:10:52;8.70;99.90
22235;DHT22;11286;45.596;5.284;2023-03-11T01:13:18;8.70;99.90
22235;DHT22;11286;45.596;5.284;2023-03-11T01:15:44;8.60;99.90
22235;DHT22;11286;45.596;5.284;2023-03-11T01:18:09;8.60;99.90
22235;DHT22;11286;45.596;5.284;2023-03-11T01:20:36;8.50;99.90
22235;DHT22;11286;45.596;5.284;2023-03-11T01:23:02;8.70;99.90
22235;DHT22;11286;45.596;5.284;2023-03-11T01:25:28;8.60;99.90
22235;DHT22;11286;45.596;5.284;2023-03-11T01:27:54;8.40;99.90
22235;DHT22;11286;45.596;5.284;2023-03-11T01:30:22;8.30;99.90
22235;DHT22;11286;45.596;5.284;2023-03-11T01:32:49;8.30;99.90
22235;DHT22;11286;45.596;5.284;2023-03-11T01:35:16;8.40;99.90
22235;DHT22;11286;45.596;5.284;2023-03-11T01:37:42;8.40;99.90
22235;DHT22;11286;45.596;5.284;2023-03-11T01:40:34;8.40;99.90
22235;DHT22;11286;45.596;5.284;2023-03-11T01:42:59;8.50;99.90
22235;DHT22;11286;45.596;5.284;2023-03-11T01:48:07;8.40;99.90
22235;DHT22;11286;45.596;5.284;2023-03-11T01:50:43;8.40;99.90
22235;DHT22;11286;45.596;5.284;2023-03-11T01:53:10;8.50;99.90
22235;DHT22;11286;45.596;5.284;2023-03-11T01:55:36;8.50;99.90
22235;DHT22;11286;45.596;5.284;2023-03-11T01:58:06;8.50;99.90
22235;DHT22;11286;45.596;5.284;2023-03-11T02:00:33;8.50;99.90
22235;DHT22;11286;45.596;5.284;2023-03-11T02:03:01;8.40;99.90
22235;DHT22;11286;45.596;5.284;2023-03-11T02:05:31;8.30;99.90
22235;DHT22;11286;45.596;5.284;2023-03-11T02:07:58;8.30;99.90
22235;DHT22;11286;45.596;5.284;2023-03-11T02:10:24;8.40;99.90
22235;DHT22;11286;45.596;5.284;2023-03-11T02:12:50;8.40;99.90
22235;DHT22;11286;45.596;5.284;2023-03-11T02:15:16;8.50;99.90
22235;DHT22;11286;45.596;5.284;2023-03-11T02:17:42;8.50;99.90
22235;DHT22;11286;45.596;5.284;2023-03-11T02:22:47;8.50;99.90
22235;DHT22;11286;45.596;5.284;2023-03-11T02:27:58;8.60;99.90
22235;DHT22;11286;45.596;5.284;2023-03-11T02:30:26;8.60;99.90
22235;DHT22;11286;45.596;5.284;2023-03-11T02:32:53;8.70;99.90
22235;DHT22;11286;45.596;5.284;2023-03-11T02:35:20;8.50;99.90
22235;DHT22;11286;45.596;5.284;2023-03-11T02:37:47;8.50;99.90
22235;DHT22;11286;45.596;5.284;2023-03-11T02:42:50;8.80;99.90
22235;DHT22;11286;45.596;5.284;2023-03-11T02:45:19;8.70;99.90
22235;DHT22;11286;45.596;5.284;2023-03-11T02:47:47;8.70;99.90
22235;DHT22;11286;45.596;5.284;2023-03-11T02:50:14;8.80;99.90
22235;DHT22;11286;45.596;5.284;2023-03-11T02:52:40;8.80;99.90
22235;DHT22;11286;45.596;5.284;2023-03-11T02:55:07;8.70;99.90
22235;DHT22;11286;45.596;5.284;2023-03-11T02:57:34;8.80;99.90
22235;DHT22;11286;45.596;5.284;2023-03-11T03:00:00;8.70;99.90
22235;DHT22;11286;45.596;5.284;2023-03-11T03:02:33;8.70;99.90
22235;DHT22;11286;45.596;5.284;2023-03-11T03:04:58;8.60;99.90
22235;DHT22;11286;45.596;5.284;2023-03-11T03:07:24;8.70;99.90
22235;DHT22;11286;45.596;5.284;2023-03-11T03:09:49;8.70;99.90
22235;DHT22;11286;45.596;5.284;2023-03-11T03:12:15;8.60;99.90
22235;DHT22;11286;45.596;5.284;2023-03-11T03:14:41;8.70;99.90
22235;DHT22;11286;45.596;5.284;2023-03-11T03:17:06;8.60;99.90
22235;DHT22;11286;45.596;5.284;2023-03-11T03:19:32;8.50;99.90
22235;DHT22;11286;45.596;5.284;2023-03-11T03:21:57;8.50;99.90
22235;DHT22;11286;45.596;5.284;2023-03-11T03:24:23;8.40;99.90
22235;DHT22;11286;45.596;5.284;2023-03-11T03:26:49;8.60;99.90
22235;DHT22;11286;45.596;5.284;2023-03-11T03:29:14;8.50;99.90
22235;DHT22;11286;45.596;5.284;2023-03-11T03:31:40;8.70;99.90
22235;DHT22;11286;45.596;5.284;2023-03-11T03:34:05;8.70;99.90
22235;DHT22;11286;45.596;5.284;2023-03-11T03:36:31;8.70;99.90
22235;DHT22;11286;45.596;5.284;2023-03-11T03:38:57;8.50;99.90
22235;DHT22;11286;45.596;5.284;2023-03-11T03:41:24;8.60;99.90
22235;DHT22;11286;45.596;5.284;2023-03-11T03:43:49;8.70;99.90
22235;DHT22;11286;45.596;5.284;2023-03-11T03:46:15;8.70;99.90
22235;DHT22;11286;45.596;5.284;2023-03-11T03:48:41;8.60;99.90
22235;DHT22;11286;45.596;5.284;2023-03-11T03:51:09;8.50;99.90
22235;DHT22;11286;45.596;5.284;2023-03-11T03:53:36;8.70;99.90
22235;DHT22;11286;45.596;5.284;2023-03-11T03:56:06;8.60;99.90
22235;DHT22;11286;45.596;5.284;2023-03-11T03:58:32;8.60;99.90
22235;DHT22;11286;45.596;5.284;2023-03-11T04:00:58;8.60;99.90
22235;DHT22;11286;45.596;5.284;2023-03-11T04:03:25;8.70;99.90
22235;DHT22;11286;45.596;5.284;2023-03-11T04:05:51;8.60;99.90
22235;DHT22;11286;45.596;5.284;2023-03-11T04:08:17;8.80;99.90
22235;DHT22;11286;45.596;5.284;2023-03-11T04:10:43;8.90;99.90
22235;DHT22;11286;45.596;5.284;2023-03-11T04:13:09;8.80;99.90
22235;DHT22;11286;45.596;5.284;2023-03-11T04:15:37;8.90;99.90
22235;DHT22;11286;45.596;5.284;2023-03-11T04:18:03;8.80;99.90
22235;DHT22;11286;45.596;5.284;2023-03-11T04:20:29;9.10;99.90
22235;DHT22;11286;45.596;5.284;2023-03-11T04:22:54;9.30;99.90
22235;DHT22;11286;45.596;5.284;2023-03-11T04:25:20;9.00;99.90
22235;DHT22;11286;45.596;5.284;2023-03-11T04:27:45;8.90;99.90
22235;DHT22;11286;45.596;5.284;2023-03-11T04:30:14;8.90;99.90
22235;DHT22;11286;45.596;5.284;2023-03-11T04:32:40;8.80;99.90
22235;DHT22;11286;45.596;5.284;2023-03-11T04:35:06;8.90;99.90
22235;DHT22;11286;45.596;5.284;2023-03-11T04:37:32;8.80;99.90
22235;DHT22;11286;45.596;5.284;2023-03-11T04:39:58;8.80;99.90
22235;DHT22;11286;45.596;5.284;2023-03-11T04:42:23;8.80;99.90
22235;DHT22;11286;45.596;5.284;2023-03-11T04:44:49;8.90;99.90
22235;DHT22;11286;45.596;5.284;2023-03-11T04:47:15;8.70;99.90
22235;DHT22;11286;45.596;5.284;2023-03-11T04:49:40;8.80;99.90
22235;DHT22;11286;45.596;5.284;2023-03-11T04:52:06;8.80;99.90
22235;DHT22;11286;45.596;5.284;2023-03-11T04:54:32;8.70;99.90
22235;DHT22;11286;45.596;5.284;2023-03-11T04:56:57;8.70;99.90
22235;DHT22;11286;45.596;5.284;2023-03-11T04:59:23;8.60;99.90
22235;DHT22;11286;45.596;5.284;2023-03-11T05:01:49;8.60;99.90
22235;DHT22;11286;45.596;5.284;2023-03-11T05:04:15;8.60;99.90
22235;DHT22;11286;45.596;5.284;2023-03-11T05:06:41;8.50;99.90
22235;DHT22;11286;45.596;5.284;2023-03-11T05:09:06;8.60;99.90
22235;DHT22;11286;45.596;5.284;2023-03-11T05:11:32;8.50;99.90
22235;DHT22;11286;45.596;5.284;2023-03-11T05:13:57;8.50;99.90
22235;DHT22;11286;45.596;5.284;2023-03-11T05:16:23;8.50;99.90
22235;DHT22;11286;45.596;5.284;2023-03-11T05:18:49;8.60;99.90
22235;DHT22;11286;45.596;5.284;2023-03-11T05:21:15;8.70;99.90
22235;DHT22;11286;45.596;5.284;2023-03-11T05:23:40;8.80;99.90
22235;DHT22;11286;45.596;5.284;2023-03-11T05:26:06;8.90;99.90
22235;DHT22;11286;45.596;5.284;2023-03-11T05:28:32;8.90;99.90
22235;DHT22;11286;45.596;5.284;2023-03-11T05:30:58;8.80;99.90
22235;DHT22;11286;45.596;5.284;2023-03-11T05:33:23;8.80;99.90
22235;DHT22;11286;45.596;5.284;2023-03-11T05:35:49;8.80;99.90
22235;DHT22;11286;45.596;5.284;2023-03-11T05:38:16;8.90;99.90
22235;DHT22;11286;45.596;5.284;2023-03-11T05:40:42;8.90;99.90
22235;DHT22;11286;45.596;5.284;2023-03-11T05:43:07;8.90;99.90
22235;DHT22;11286;45.596;5.284;2023-03-11T05:45:33;8.90;99.90
22235;DHT22;11286;45.596;5.284;2023-03-11T05:47:59;8.90;99.90
22235;DHT22;11286;45.596;5.284;2023-03-11T05:50:24;8.80;99.90
22235;DHT22;11286;45.596;5.284;2023-03-11T05:52:50;8.70;99.90
22235;DHT22;11286;45.596;5.284;2023-03-11T05:55:16;8.70;99.90
22235;DHT22;11286;45.596;5.284;2023-03-11T05:57:41;8.90;99.90
22235;DHT22;11286;45.596;5.284;2023-03-11T06:00:08;8.80;99.90
22235;DHT22;11286;45.596;5.284;2023-03-11T06:02:38;8.70;99.90
22235;DHT22;11286;45.596;5.284;2023-03-11T06:05:05;8.60;99.90
22235;DHT22;11286;45.596;5.284;2023-03-11T06:07:33;8.60;99.90
22235;DHT22;11286;45.596;5.284;2023-03-11T06:09:59;8.80;99.90
22235;DHT22;11286;45.596;5.284;2023-03-11T06:12:24;8.60;99.90
22235;DHT22;11286;45.596;5.284;2023-03-11T06:14:52;8.70;99.90
22235;DHT22;11286;45.596;5.284;2023-03-11T06:17:18;8.70;99.90
22235;DHT22;11286;45.596;5.284;2023-03-11T06:19:43;8.70;99.90
22235;DHT22;11286;45.596;5.284;2023-03-11T06:22:09;8.70;99.90
22235;DHT22;11286;45.596;5.284;2023-03-11T06:24:35;8.90;99.90
22235;DHT22;11286;45.596;5.284;2023-03-11T06:27:01;8.90;99.90
22235;DHT22;11286;45.596;5.284;2023-03-11T06:29:27;8.80;99.90
22235;DHT22;11286;45.596;5.284;2023-03-11T06:31:53;8.70;99.90
22235;DHT22;11286;45.596;5.284;2023-03-11T06:34:19;8.80;99.90
22235;DHT22;11286;45.596;5.284;2023-03-11T06:36:45;8.90;99.90
22235;DHT22;11286;45.596;5.284;2023-03-11T06:39:12;8.80;99.90
22235;DHT22;11286;45.596;5.284;2023-03-11T06:41:39;9.00;99.90
22235;DHT22;11286;45.596;5.284;2023-03-11T06:44:05;9.00;99.90
22235;DHT22;11286;45.596;5.284;2023-03-11T06:46:31;9.00;99.90
22235;DHT22;11286;45.596;5.284;2023-03-11T06:48:56;8.80;99.90
22235;DHT22;11286;45.596;5.284;2023-03-11T06:51:22;8.80;99.90
22235;DHT22;11286;45.596;5.284;2023-03-11T06:53:49;8.80;99.90
22235;DHT22;11286;45.596;5.284;2023-03-11T06:56:16;9.10;99.90
22235;DHT22;11286;45.596;5.284;2023-03-11T06:58:43;9.00;99.90
22235;DHT22;11286;45.596;5.284;2023-03-11T07:01:17;9.10;99.90
22235;DHT22;11286;45.596;5.284;2023-03-11T07:03:45;9.10;99.90
22235;DHT22;11286;45.596;5.284;2023-03-11T07:06:20;8.90;99.90
22235;DHT22;11286;45.596;5.284;2023-03-11T07:08:47;8.80;99.90
22235;DHT22;11286;45.596;5.284;2023-03-11T07:11:18;8.80;99.90
22235;DHT22;11286;45.596;5.284;2023-03-11T07:13:45;8.90;99.90
22235;DHT22;11286;45.596;5.284;2023-03-11T07:16:16;9.00;99.90
22235;DHT22;11286;45.596;5.284;2023-03-11T07:18:43;9.00;99.90
22235;DHT22;11286;45.596;5.284;2023-03-11T07:21:15;8.90;99.90
22235;DHT22;11286;45.596;5.284;2023-03-11T07:23:42;8.90;99.90
22235;DHT22;11286;45.596;5.284;2023-03-11T07:26:10;9.00;99.90
22235;DHT22;11286;45.596;5.284;2023-03-11T07:28:35;9.10;99.90
22235;DHT22;11286;45.596;5.284;2023-03-11T07:31:19;9.10;99.90
22235;DHT22;11286;45.596;5.284;2023-03-11T07:33:45;9.00;99.90
22235;DHT22;11286;45.596;5.284;2023-03-11T07:36:13;9.20;99.90
22235;DHT22;11286;45.596;5.284;2023-03-11T07:38:39;9.20;99.90
22235;DHT22;11286;45.596;5.284;2023-03-11T07:41:05;9.30;99.90
22235;DHT22;11286;45.596;5.284;2023-03-11T07:43:31;9.40;99.90
22235;DHT22;11286;45.596;5.284;2023-03-11T07:48:29;9.40;99.90
22235;DHT22;11286;45.596;5.284;2023-03-11T07:51:06;9.50;99.90
22235;DHT22;11286;45.596;5.284;2023-03-11T07:53:33;9.50;99.90
22235;DHT22;11286;45.596;5.284;2023-03-11T07:55:59;9.70;99.90
22235;DHT22;11286;45.596;5.284;2023-03-11T07:58:25;9.70;99.90
22235;DHT22;11286;45.596;5.284;2023-03-11T08:00:51;9.70;99.90
22235;DHT22;11286;45.596;5.284;2023-03-11T08:03:17;9.70;99.90
22235;DHT22;11286;45.596;5.284;2023-03-11T08:05:43;9.70;99.90
22235;DHT22;11286;45.596;5.284;2023-03-11T08:08:09;9.80;99.90
22235;DHT22;11286;45.596;5.284;2023-03-11T08:10:38;9.90;99.90
22235;DHT22;11286;45.596;5.284;2023-03-11T08:13:04;10.00;99.90
22235;DHT22;11286;45.596;5.284;2023-03-11T08:15:30;10.10;99.90
22235;DHT22;11286;45.596;5.284;2023-03-11T08:17:55;10.20;99.90
22235;DHT22;11286;45.596;5.284;2023-03-11T08:20:21;9.90;99.90
22235;DHT22;11286;45.596;5.284;2023-03-11T08:22:46;10.00;99.90
22235;DHT22;11286;45.596;5.284;2023-03-11T08:25:12;10.10;99.90
22235;DHT22;11286;45.596;5.284;2023-03-11T08:27:38;10.00;99.90
22235;DHT22;11286;45.596;5.284;2023-03-11T08:30:05;9.90;99.90
22235;DHT22;11286;45.596;5.284;2023-03-11T08:32:31;10.00;99.90
22235;DHT22;11286;45.596;5.284;2023-03-11T08:34:57;10.10;99.90
22235;DHT22;11286;45.596;5.284;2023-03-11T08:37:23;9.70;99.90
22235;DHT22;11286;45.596;5.284;2023-03-11T08:39:49;9.90;99.90
22235;DHT22;11286;45.596;5.284;2023-03-11T08:42:16;9.90;99.90
22235;DHT22;11286;45.596;5.284;2023-03-11T08:44:42;10.10;99.90
22235;DHT22;11286;45.596;5.284;2023-03-11T08:47:08;10.20;99.90
22235;DHT22;11286;45.596;5.284;2023-03-11T08:49:34;10.10;99.90
22235;DHT22;11286;45.596;5.284;2023-03-11T08:52:01;10.00;99.90
22235;DHT22;11286;45.596;5.284;2023-03-11T08:54:27;10.30;99.90
22235;DHT22;11286;45.596;5.284;2023-03-11T08:56:52;10.40;99.90
22235;DHT22;11286;45.596;5.284;2023-03-11T08:59:18;10.50;99.90
22235;DHT22;11286;45.596;5.284;2023-03-11T09:01:44;10.20;99.90
22235;DHT22;11286;45.596;5.284;2023-03-11T09:04:11;10.60;99.90
22235;DHT22;11286;45.596;5.284;2023-03-11T09:06:41;10.60;99.90
22235;DHT22;11286;45.596;5.284;2023-03-11T09:09:09;10.50;99.90
22235;DHT22;11286;45.596;5.284;2023-03-11T09:11:35;10.70;99.90
22235;DHT22;11286;45.596;5.284;2023-03-11T09:14:02;11.00;99.90
22235;DHT22;11286;45.596;5.284;2023-03-11T09:16:28;11.10;99.90
22235;DHT22;11286;45.596;5.284;2023-03-11T09:18:53;11.00;99.90
22235;DHT22;11286;45.596;5.284;2023-03-11T09:21:19;11.30;99.90
22235;DHT22;11286;45.596;5.284;2023-03-11T09:23:45;11.30;99.90
22235;DHT22;11286;45.596;5.284;2023-03-11T09:26:12;11.30;99.90
22235;DHT22;11286;45.596;5.284;2023-03-11T09:28:38;11.20;99.90
22235;DHT22;11286;45.596;5.284;2023-03-11T09:31:04;11.30;99.90
22235;DHT22;11286;45.596;5.284;2023-03-11T09:33:29;11.30;99.90
22235;DHT22;11286;45.596;5.284;2023-03-11T09:35:57;11.50;99.90
22235;DHT22;11286;45.596;5.284;2023-03-11T09:38:23;11.50;99.90
22235;DHT22;11286;45.596;5.284;2023-03-11T09:46:32;11.30;99.90
22235;DHT22;11286;45.596;5.284;2023-03-11T09:52:14;11.40;99.90
22235;DHT22;11286;45.596;5.284;2023-03-11T09:54:43;11.00;99.90
22235;DHT22;11286;45.596;5.284;2023-03-11T09:57:17;11.00;99.90
22235;DHT22;11286;45.596;5.284;2023-03-11T09:59:44;10.90;99.90
22235;DHT22;11286;45.596;5.284;2023-03-11T10:02:16;11.00;99.90
22235;DHT22;11286;45.596;5.284;2023-03-11T10:04:50;11.10;99.90
22235;DHT22;11286;45.596;5.284;2023-03-11T10:07:20;11.40;99.90
22235;DHT22;11286;45.596;5.284;2023-03-11T10:23:25;11.70;99.90
22235;DHT22;11286;45.596;5.284;2023-03-11T10:28:54;12.00;99.90
22235;DHT22;11286;45.596;5.284;2023-03-11T10:31:27;12.20;99.90
22235;DHT22;11286;45.596;5.284;2023-03-11T10:34:13;12.30;99.90
22235;DHT22;11286;45.596;5.284;2023-03-11T10:39:22;12.50;99.90
22235;DHT22;11286;45.596;5.284;2023-03-11T10:42:04;12.30;99.90
22235;DHT22;11286;45.596;5.284;2023-03-11T10:44:34;12.40;99.90
22235;DHT22;11286;45.596;5.284;2023-03-11T10:47:00;12.30;99.90
22235;DHT22;11286;45.596;5.284;2023-03-11T10:49:27;12.20;99.90
22235;DHT22;11286;45.596;5.284;2023-03-11T10:51:53;12.70;99.90
22235;DHT22;11286;45.596;5.284;2023-03-11T10:54:30;12.90;99.90
22235;DHT22;11286;45.596;5.284;2023-03-11T10:56:58;13.50;99.90
22235;DHT22;11286;45.596;5.284;2023-03-11T10:59:30;13.50;99.90
22235;DHT22;11286;45.596;5.284;2023-03-11T11:02:26;13.40;99.90
22235;DHT22;11286;45.596;5.284;2023-03-11T11:05:28;13.60;99.90
22235;DHT22;11286;45.596;5.284;2023-03-11T11:08:14;13.70;99.90
22235;DHT22;11286;45.596;5.284;2023-03-11T11:10:55;13.50;99.90
22235;DHT22;11286;45.596;5.284;2023-03-11T11:13:23;12.90;99.90
22235;DHT22;11286;45.596;5.284;2023-03-11T11:23:32;14.10;99.90
22235;DHT22;11286;45.596;5.284;2023-03-11T11:26:02;14.40;99.90
22235;DHT22;11286;45.596;5.284;2023-03-11T11:28:30;15.10;99.90
22235;DHT22;11286;45.596;5.284;2023-03-11T11:31:05;15.30;99.90
22235;DHT22;11286;45.596;5.284;2023-03-11T11:33:54;15.00;99.90
22235;DHT22;11286;45.596;5.284;2023-03-11T11:36:24;14.50;99.90
22235;DHT22;11286;45.596;5.284;2023-03-11T11:38:52;14.10;99.90
22235;DHT22;11286;45.596;5.284;2023-03-11T11:41:23;13.70;99.90
22235;DHT22;11286;45.596;5.284;2023-03-11T11:43:53;13.80;99.90
22235;DHT22;11286;45.596;5.284;2023-03-11T11:46:42;13.80;99.90
22235;DHT22;11286;45.596;5.284;2023-03-11T11:49:28;13.80;99.90
22235;DHT22;11286;45.596;5.284;2023-03-11T11:52:17;14.10;99.90
22235;DHT22;11286;45.596;5.284;2023-03-11T11:54:56;13.90;99.90
22235;DHT22;11286;45.596;5.284;2023-03-11T11:57:23;14.20;99.90
22235;DHT22;11286;45.596;5.284;2023-03-11T11:59:49;14.40;99.90
22235;DHT22;11286;45.596;5.284;2023-03-11T12:07:46;14.20;99.90
22235;DHT22;11286;45.596;5.284;2023-03-11T12:10:32;14.70;99.90
22235;DHT22;11286;45.596;5.284;2023-03-11T12:15:48;14.40;99.90
22235;DHT22;11286;45.596;5.284;2023-03-11T12:18:29;13.70;99.90
22235;DHT22;11286;45.596;5.284;2023-03-11T12:20:59;13.60;99.90
22235;DHT22;11286;45.596;5.284;2023-03-11T12:23:37;13.20;99.90
22235;DHT22;11286;45.596;5.284;2023-03-11T12:26:20;13.00;99.90
22235;DHT22;11286;45.596;5.284;2023-03-11T12:31:12;12.90;99.90
22235;DHT22;11286;45.596;5.284;2023-03-11T12:33:39;12.90;99.90
22235;DHT22;11286;45.596;5.284;2023-03-11T12:36:16;13.10;99.90
22235;DHT22;11286;45.596;5.284;2023-03-11T12:38:48;13.10;99.90
22235;DHT22;11286;45.596;5.284;2023-03-11T12:46:07;13.20;99.90
22235;DHT22;11286;45.596;5.284;2023-03-11T12:48:44;13.30;99.90
22235;DHT22;11286;45.596;5.284;2023-03-11T12:53:54;13.10;99.90
22235;DHT22;11286;45.596;5.284;2023-03-11T12:56:39;13.10;99.90
22235;DHT22;11286;45.596;5.284;2023-03-11T13:01:57;13.20;99.90
22235;DHT22;11286;45.596;5.284;2023-03-11T13:04:53;12.90;99.90
22235;DHT22;11286;45.596;5.284;2023-03-11T13:12:50;13.20;99.90
22235;DHT22;11286;45.596;5.284;2023-03-11T13:18:31;12.70;99.90
22235;DHT22;11286;45.596;5.284;2023-03-11T13:21:02;12.70;99.90
22235;DHT22;11286;45.596;5.284;2023-03-11T13:23:35;12.80;99.90
22235;DHT22;11286;45.596;5.284;2023-03-11T13:37:23;12.70;99.90
22235;DHT22;11286;45.596;5.284;2023-03-11T13:39:52;12.90;99.90
22235;DHT22;11286;45.596;5.284;2023-03-11T13:42:34;12.80;99.90
22235;DHT22;11286;45.596;5.284;2023-03-11T13:45:02;13.00;99.90
22235;DHT22;11286;45.596;5.284;2023-03-11T13:47:32;12.80;99.90
22235;DHT22;11286;45.596;5.284;2023-03-11T13:52:34;13.10;99.90
22235;DHT22;11286;45.596;5.284;2023-03-11T13:57:33;13.50;99.90
22235;DHT22;11286;45.596;5.284;2023-03-11T14:00:29;13.30;99.90
22235;DHT22;11286;45.596;5.284;2023-03-11T14:03:02;13.50;99.90
22235;DHT22;11286;45.596;5.284;2023-03-11T14:05:31;13.30;99.90
22235;DHT22;11286;45.596;5.284;2023-03-11T14:08:21;13.20;99.90
22235;DHT22;11286;45.596;5.284;2023-03-11T14:10:55;13.20;99.90
22235;DHT22;11286;45.596;5.284;2023-03-11T14:13:23;13.10;99.90
22235;DHT22;11286;45.596;5.284;2023-03-11T14:16:04;13.10;99.90
22235;DHT22;11286;45.596;5.284;2023-03-11T14:18:36;12.80;99.90
22235;DHT22;11286;45.596;5.284;2023-03-11T14:21:04;13.10;99.90
22235;DHT22;11286;45.596;5.284;2023-03-11T14:23:35;12.90;99.90
22235;DHT22;11286;45.596;5.284;2023-03-11T14:26:11;12.60;99.90
22235;DHT22;11286;45.596;5.284;2023-03-11T14:28:40;13.00;99.90
22235;DHT22;11286;45.596;5.284;2023-03-11T14:31:21;13.10;99.90
22235;DHT22;11286;45.596;5.284;2023-03-11T14:34:00;13.30;99.90
22235;DHT22;11286;45.596;5.284;2023-03-11T14:36:48;13.40;99.90
22235;DHT22;11286;45.596;5.284;2023-03-11T14:39:35;13.50;99.90
22235;DHT22;11286;45.596;5.284;2023-03-11T14:42:21;13.40;99.90
22235;DHT22;11286;45.596;5.284;2023-03-11T14:50:21;13.20;99.90
22235;DHT22;11286;45.596;5.284;2023-03-11T14:52:58;13.20;99.90
22235;DHT22;11286;45.596;5.284;2023-03-11T14:55:31;13.20;99.90
22235;DHT22;11286;45.596;5.284;2023-03-11T14:58:17;13.20;99.90
22235;DHT22;11286;45.596;5.284;2023-03-11T15:01:12;13.10;99.90
22235;DHT22;11286;45.596;5.284;2023-03-11T15:03:43;12.90;99.90
22235;DHT22;11286;45.596;5.284;2023-03-11T15:06:18;13.30;99.90
22235;DHT22;11286;45.596;5.284;2023-03-11T15:09:12;13.50;99.90
22235;DHT22;11286;45.596;5.284;2023-03-11T15:14:28;13.50;99.90
22235;DHT22;11286;45.596;5.284;2023-03-11T15:19:34;13.20;99.90
22235;DHT22;11286;45.596;5.284;2023-03-11T15:24:47;12.70;99.90
22235;DHT22;11286;45.596;5.284;2023-03-11T15:29:51;12.80;99.90
22235;DHT22;11286;45.596;5.284;2023-03-11T15:37:31;12.70;99.90
22235;DHT22;11286;45.596;5.284;2023-03-11T15:40:07;12.70;99.90
22235;DHT22;11286;45.596;5.284;2023-03-11T15:42:34;12.80;99.90
22235;DHT22;11286;45.596;5.284;2023-03-11T15:47:40;12.90;99.90
22235;DHT22;11286;45.596;5.284;2023-03-11T15:50:21;12.60;99.90
22235;DHT22;11286;45.596;5.284;2023-03-11T15:52:53;12.50;99.90
22235;DHT22;11286;45.596;5.284;2023-03-11T15:55:20;12.60;99.90
22235;DHT22;11286;45.596;5.284;2023-03-11T15:57:47;12.50;99.90
22235;DHT22;11286;45.596;5.284;2023-03-11T16:00:20;12.70;99.90
22235;DHT22;11286;45.596;5.284;2023-03-11T16:02:48;12.80;99.90
22235;DHT22;11286;45.596;5.284;2023-03-11T16:05:19;12.80;99.90
22235;DHT22;11286;45.596;5.284;2023-03-11T16:07:45;12.70;99.90
22235;DHT22;11286;45.596;5.284;2023-03-11T16:10:13;12.40;99.90
22235;DHT22;11286;45.596;5.284;2023-03-11T16:12:39;12.30;99.90
22235;DHT22;11286;45.596;5.284;2023-03-11T16:15:22;12.10;99.90
22235;DHT22;11286;45.596;5.284;2023-03-11T16:17:55;12.00;99.90
22235;DHT22;11286;45.596;5.284;2023-03-11T16:20:23;12.00;99.90
22235;DHT22;11286;45.596;5.284;2023-03-11T16:22:51;11.90;99.90
22235;DHT22;11286;45.596;5.284;2023-03-11T16:25:32;12.00;99.90
22235;DHT22;11286;45.596;5.284;2023-03-11T16:27:59;12.20;99.90
22235;DHT22;11286;45.596;5.284;2023-03-11T16:30:27;12.20;99.90
22235;DHT22;11286;45.596;5.284;2023-03-11T16:32:53;12.20;99.90
22235;DHT22;11286;45.596;5.284;2023-03-11T16:35:19;12.10;99.90
22235;DHT22;11286;45.596;5.284;2023-03-11T16:37:45;12.00;99.90
22235;DHT22;11286;45.596;5.284;2023-03-11T16:40:22;11.90;99.90
22235;DHT22;11286;45.596;5.284;2023-03-11T16:43:09;11.80;99.90
22235;DHT22;11286;45.596;5.284;2023-03-11T16:45:35;11.80;99.90
22235;DHT22;11286;45.596;5.284;2023-03-11T16:48:00;11.80;99.90
22235;DHT22;11286;45.596;5.284;2023-03-11T16:50:27;11.90;99.90
22235;DHT22;11286;45.596;5.284;2023-03-11T16:52:55;11.80;99.90
22235;DHT22;11286;45.596;5.284;2023-03-11T16:55:21;11.80;99.90
22235;DHT22;11286;45.596;5.284;2023-03-11T16:57:47;11.80;99.90
22235;DHT22;11286;45.596;5.284;2023-03-11T17:00:14;11.80;99.90
22235;DHT22;11286;45.596;5.284;2023-03-11T17:02:40;11.70;99.90
22235;DHT22;11286;45.596;5.284;2023-03-11T17:05:06;11.60;99.90
22235;DHT22;11286;45.596;5.284;2023-03-11T17:07:32;11.50;99.90
22235;DHT22;11286;45.596;5.284;2023-03-11T17:09:58;11.50;99.90
22235;DHT22;11286;45.596;5.284;2023-03-11T17:12:25;11.60;99.90
22235;DHT22;11286;45.596;5.284;2023-03-11T17:14:52;11.50;99.90
22235;DHT22;11286;45.596;5.284;2023-03-11T17:17:18;11.70;99.90
22235;DHT22;11286;45.596;5.284;2023-03-11T17:19:44;11.80;99.90
22235;DHT22;11286;45.596;5.284;2023-03-11T17:22:10;11.70;99.90
22235;DHT22;11286;45.596;5.284;2023-03-11T17:24:36;11.60;99.90
22235;DHT22;11286;45.596;5.284;2023-03-11T17:27:03;11.60;99.90
22235;DHT22;11286;45.596;5.284;2023-03-11T17:29:29;11.60;99.90
22235;DHT22;11286;45.596;5.284;2023-03-11T17:31:54;11.50;99.90
22235;DHT22;11286;45.596;5.284;2023-03-11T17:34:21;11.50;99.90
22235;DHT22;11286;45.596;5.284;2023-03-11T17:36:46;11.50;99.90
22235;DHT22;11286;45.596;5.284;2023-03-11T17:39:12;11.40;99.90
22235;DHT22;11286;45.596;5.284;2023-03-11T17:41:37;11.40;99.90
22235;DHT22;11286;45.596;5.284;2023-03-11T17:44:03;11.40;99.90
22235;DHT22;11286;45.596;5.284;2023-03-11T17:46:29;11.50;99.90
22235;DHT22;11286;45.596;5.284;2023-03-11T17:48:55;11.50;99.90
22235;DHT22;11286;45.596;5.284;2023-03-11T17:51:22;11.50;99.90